This is the latest recevied weather packets stored in our database for station/object KD7KCN-5. If no packets are shown the sender has not sent any weather packets the latest 10 day(s).
| Time | Temp. | Humidity | Pressure | Rain* | Wind** | Luminosity | Snow |
|---|---|---|---|---|---|---|---|
| 1777882313 | 13.89° C | 43% | 1009.8 hPa | 0 mm | - | 0 W/m² | - |
| 1777881712 | 14.44° C | 41% | 1009.9 hPa | 0 mm | - | 0 W/m² | - |
| 1777881112 | 13.89° C | 42% | 1009.9 hPa | 0 mm | - | 0 W/m² | - |
| 1777880513 | 13.89° C | 41% | 1009.9 hPa | 0 mm | - | 0 W/m² | - |
| 1777879913 | 13.89° C | 41% | 1010 hPa | 0 mm | - | 0 W/m² | - |
| 1777879312 | 13.89° C | 41% | 1009.8 hPa | 0 mm | - | 0 W/m² | - |
| 1777878712 | 13.89° C | 42% | 1010.7 hPa | 0 mm | - | 0 W/m² | - |
| 1777878113 | 14.44° C | 41% | 1010.7 hPa | 0 mm | - | 0 W/m² | - |
| 1777877513 | 15° C | 39% | 1010.6 hPa | 0 mm | - | 0 W/m² | - |
| 1777876915 | 15° C | 38% | 1010.4 hPa | 0 mm | - | 0 W/m² | - |
| 1777876312 | 15° C | 37% | 1010.5 hPa | 0 mm | - | 0 W/m² | - |
| 1777875712 | 15° C | 38% | 1010.6 hPa | 0 mm | - | 0 W/m² | - |
| 1777875114 | 15.56° C | 38% | 1010.6 hPa | 0 mm | - | 0 W/m² | - |
| 1777874513 | 15.56° C | 39% | 1010.3 hPa | 0 mm | - | 0 W/m² | - |
| 1777873913 | 15° C | 40% | 1011.3 hPa | 0 mm | - | 0 W/m² | - |
| 1777873313 | 14.44° C | 41% | 1011 hPa | 0 mm | - | 0 W/m² | - |
| 1777872713 | 14.44° C | 44% | 1011 hPa | 0 mm | - | 0 W/m² | - |
| 1777872113 | 14.44° C | 43% | 1010.7 hPa | 0 mm | - | 0 W/m² | - |
| 1777871513 | 15° C | 41% | 1010.8 hPa | 0 mm | - | 0 W/m² | - |
| 1777870912 | 16.67° C | 35% | 1011.3 hPa | 0 mm | - | 0 W/m² | - |
| 1777870314 | 16.11° C | 32% | 1011.3 hPa | 0 mm | - | 0 W/m² | - |
| 1777869716 | 16.11° C | 35% | 1011.2 hPa | 0 mm | - | 0 W/m² | - |
| 1777869113 | 16.11° C | 36% | 1010.8 hPa | 0 mm | - | 0 W/m² | - |
| 1777868514 | 15.56° C | 37% | 1010.6 hPa | 0 mm | - | 0 W/m² | - |
| 1777867913 | 14.44° C | 40% | 1010.3 hPa | 0 mm | - | 0 W/m² | - |
* Rain latest hour (hover to see other rain measurements)
** Current wind speed in m/s (hover to see current wind gust speed)